Time;durP1;ratioP1;P1;durP2;ratioP2;P2;SDS_P1;SDS_P2;PMS_P1;PMS_P2;Temp;Humidity;BMP_temperature;BMP_pressure;BME280_temperature;BME280_humidity;BME280_pressure;Samples;Min_cycle;Max_cycle;Signal;HPM_P1;HPM_P2
2021/01/07 00:01:34;;;;;;;0.40;0.30;;;;;;;2.08;100.00;100410.81;5093668;28;20963;-67
2021/01/07 00:04:00;;;;;;;0.40;0.20;;;;;;;2.10;100.00;100414.03;5094497;28;20902;-67
2021/01/07 00:06:27;;;;;;;2.70;1.70;;;;;;;2.12;100.00;100414.59;5094085;28;20440;-65
2021/01/07 00:08:53;;;;;;;0.40;0.27;;;;;;;2.10;100.00;100407.91;5093562;28;20534;-66
2021/01/07 00:11:20;;;;;;;0.60;0.40;;;;;;;2.12;100.00;100409.25;5094037;28;20493;-67
2021/01/07 00:13:46;;;;;;;0.40;0.30;;;;;;;2.09;100.00;100404.41;5093309;28;20454;-64
2021/01/07 00:16:12;;;;;;;0.40;0.30;;;;;;;2.09;100.00;100408.97;5093673;28;21093;-67
2021/01/07 00:18:38;;;;;;;0.50;0.40;;;;;;;1.98;100.00;100394.66;5093720;28;20894;-64
2021/01/07 00:21:05;;;;;;;0.50;0.40;;;;;;;2.02;100.00;100395.78;5093387;28;20444;-66
2021/01/07 00:23:32;;;;;;;0.40;0.30;;;;;;;2.00;100.00;100396.03;5093414;28;20482;-67
2021/01/07 00:25:58;;;;;;;0.57;0.53;;;;;;;2.00;100.00;100397.91;5093735;28;20436;-66
2021/01/07 00:28:24;;;;;;;0.60;0.40;;;;;;;1.95;100.00;100397.84;5093258;28;20479;-67
2021/01/07 00:30:51;;;;;;;0.60;0.50;;;;;;;2.00;100.00;100398.69;5100346;28;20537;-67
2021/01/07 00:33:18;;;;;;;0.40;0.30;;;;;;;1.97;100.00;100404.53;5100690;28;20481;-67
2021/01/07 00:35:45;;;;;;;0.40;0.27;;;;;;;1.99;100.00;100398.94;5100589;28;20515;-67
2021/01/07 00:38:11;;;;;;;0.40;0.20;;;;;;;2.02;100.00;100401.91;5100111;28;20478;-65
2021/01/07 00:40:38;;;;;;;0.40;0.30;;;;;;;2.07;100.00;100403.84;5100480;28;20924;-67
2021/01/07 00:43:05;;;;;;;0.40;0.33;;;;;;;2.13;100.00;100402.88;5099976;28;20451;-67
2021/01/07 00:45:31;;;;;;;0.40;0.30;;;;;;;2.09;100.00;100411.63;5099943;28;20465;-67
2021/01/07 00:47:58;;;;;;;0.40;0.30;;;;;;;2.09;100.00;100412.44;5099254;28;21054;-66
2021/01/07 00:50:24;;;;;;;0.40;0.30;;;;;;;2.06;100.00;100420.13;5099876;28;20446;-67
2021/01/07 00:52:50;;;;;;;0.50;0.40;;;;;;;2.00;100.00;100411.25;5099599;28;20961;-67
2021/01/07 00:55:17;;;;;;;0.40;0.27;;;;;;;1.94;100.00;100417.56;5099656;28;20479;-67
2021/01/07 00:57:44;;;;;;;0.40;0.30;;;;;;;1.91;100.00;100405.53;5099361;28;20528;-66
2021/01/07 01:00:13;;;;;;;0.40;0.40;;;;;;;1.98;100.00;100413.34;5100056;28;20476;-65
2021/01/07 01:02:40;;;;;;;0.40;0.30;;;;;;;1.98;100.00;100418.69;5099394;28;20447;-67
2021/01/07 01:05:07;;;;;;;0.40;0.30;;;;;;;1.96;100.00;100415.47;5099672;28;20843;-65
2021/01/07 01:07:34;;;;;;;0.40;0.40;;;;;;;1.91;100.00;100418.88;5099472;28;20473;-66
2021/01/07 01:10:00;;;;;;;0.40;0.20;;;;;;;1.91;100.00;100410.88;5100015;28;20439;-66
2021/01/07 01:12:27;;;;;;;0.40;0.30;;;;;;;1.92;100.00;100414.34;5099490;28;20444;-66
2021/01/07 01:14:54;;;;;;;0.40;0.30;;;;;;;1.94;100.00;100412.22;5099930;28;20479;-67
2021/01/07 01:17:20;;;;;;;0.40;0.27;;;;;;;1.91;100.00;100413.56;5098883;28;20480;-67
2021/01/07 01:19:46;;;;;;;0.70;0.50;;;;;;;1.93;100.00;100418.63;5099357;28;20898;-67
2021/01/07 01:22:12;;;;;;;0.40;0.30;;;;;;;1.93;100.00;100424.78;5099514;28;20443;-66
2021/01/07 01:24:38;;;;;;;0.40;0.30;;;;;;;1.95;100.00;100424.56;5099898;28;20459;-66
2021/01/07 01:27:05;;;;;;;0.63;0.57;;;;;;;1.98;100.00;100424.84;5099395;28;20442;-67
2021/01/07 01:29:31;;;;;;;0.40;0.33;;;;;;;2.01;100.00;100426.22;5099893;28;20478;-66
2021/01/07 01:31:58;;;;;;;0.40;0.30;;;;;;;2.01;100.00;100428.88;5099628;28;20839;-67
2021/01/07 01:34:24;;;;;;;0.40;0.30;;;;;;;1.98;100.00;100424.84;5099984;28;20947;-66
2021/01/07 01:36:53;;;;;;;2.10;0.63;;;;;;;1.98;100.00;100426.72;5099137;28;20561;-66
2021/01/07 01:39:19;;;;;;;0.40;0.30;;;;;;;1.96;100.00;100428.84;5099359;28;20479;-66
2021/01/07 01:41:48;;;;;;;0.60;0.50;;;;;;;1.95;100.00;100424.56;5095913;28;20444;-66
2021/01/07 01:44:15;;;;;;;0.90;0.37;;;;;;;1.93;100.00;100427.44;5096941;28;20456;-65
2021/01/07 01:46:41;;;;;;;0.40;0.30;;;;;;;1.95;100.00;100424.56;5096427;28;20492;-66
2021/01/07 01:49:12;;;;;;;0.40;0.30;;;;;;;1.91;100.00;100418.09;5096768;28;20459;-66
2021/01/07 01:51:38;;;;;;;0.40;0.30;;;;;;;1.95;100.00;100417.34;5096580;28;20464;-65
2021/01/07 01:54:06;;;;;;;0.40;0.30;;;;;;;1.89;100.00;100414.84;5096635;28;20438;-66
2021/01/07 01:56:33;;;;;;;8.83;0.93;;;;;;;1.94;100.00;100414.91;5096081;28;20517;-66
2021/01/07 01:59:01;;;;;;;0.50;0.50;;;;;;;1.84;100.00;100420.13;5096075;28;20556;-66
2021/01/07 02:01:27;;;;;;;0.40;0.20;;;;;;;1.84;100.00;100417.44;5096073;28;20824;-67
2021/01/07 02:03:54;;;;;;;0.40;0.30;;;;;;;1.84;100.00;100414.78;5095956;28;20440;-66
2021/01/07 02:06:24;;;;;;;0.80;0.53;;;;;;;1.88;100.00;100418.56;5095679;28;20440;-67
2021/01/07 02:08:52;;;;;;;0.50;0.40;;;;;;;1.84;100.00;100417.44;5096166;28;20501;-67
2021/01/07 02:11:18;;;;;;;4.53;2.97;;;;;;;1.88;100.00;100422.03;5095703;28;20480;-66
2021/01/07 02:13:46;;;;;;;1.27;1.17;;;;;;;1.86;100.00;100415.31;5095724;28;21000;-65
2021/01/07 02:16:19;;;;;;;1.50;1.40;;;;;;;1.89;100.00;100414.84;5095813;28;20482;-66
2021/01/07 02:18:45;;;;;;;1.20;0.70;;;;;;;1.94;100.00;100417.56;5095853;28;20490;-67
2021/01/07 02:21:12;;;;;;;0.40;0.20;;;;;;;1.92;100.00;100419.69;5095580;28;20444;-65
2021/01/07 02:23:46;;;;;;;0.40;0.30;;;;;;;1.95;100.00;100419.22;5095378;28;20953;-67
2021/01/07 02:26:13;;;;;;;0.50;0.40;;;;;;;1.95;100.00;100419.22;5095462;28;20440;-65
2021/01/07 02:28:39;;;;;;;0.60;0.40;;;;;;;1.99;100.00;100417.63;5095431;28;20459;-65
2021/01/07 02:31:05;;;;;;;0.40;0.30;;;;;;;1.92;100.00;100420.50;5095556;28;20444;-66
2021/01/07 02:33:31;;;;;;;0.40;0.30;;;;;;;1.86;100.00;100415.31;5095367;28;20440;-65
2021/01/07 02:35:57;;;;;;;0.40;0.30;;;;;;;1.83;100.00;100410.50;5095260;28;20516;-67
2021/01/07 02:38:24;;;;;;;1.80;0.87;;;;;;;1.87;100.00;100416.97;5095572;28;20462;-67
2021/01/07 02:40:50;;;;;;;0.40;0.20;;;;;;;1.89;100.00;100409.50;5094911;28;20451;-67
2021/01/07 02:43:17;;;;;;;0.40;0.30;;;;;;;1.87;100.00;100409.75;5095078;28;20535;-67
2021/01/07 02:45:43;;;;;;;0.40;0.30;;;;;;;1.90;100.00;100411.09;5094838;28;20436;-66
2021/01/07 02:48:09;;;;;;;0.40;0.30;;;;;;;1.91;100.00;100407.41;5094894;28;20974;-67
2021/01/07 02:50:35;;;;;;;0.40;0.30;;;;;;;1.90;100.00;100406.56;5094690;28;20495;-66
2021/01/07 02:53:02;;;;;;;0.40;0.30;;;;;;;1.90;100.00;100411.09;5094873;28;20502;-65
2021/01/07 02:55:29;;;;;;;0.60;0.60;;;;;;;1.92;100.00;100411.69;5094557;28;20441;-65
2021/01/07 02:57:55;;;;;;;0.40;0.30;;;;;;;1.83;100.00;100410.50;5095419;28;21063;-67
2021/01/07 03:00:21;;;;;;;1.43;0.83;;;;;;;1.82;100.00;100411.56;5095348;28;20445;-66
2021/01/07 03:02:47;;;;;;;0.40;0.30;;;;;;;1.74;100.00;100410.91;5094727;28;20487;-66
2021/01/07 03:05:14;;;;;;;0.40;0.30;;;;;;;1.73;100.00;100406.66;5094719;28;20498;-66
2021/01/07 03:07:40;;;;;;;0.80;0.50;;;;;;;1.81;100.00;100408.06;5094496;28;21008;-67
2021/01/07 03:10:08;;;;;;;0.40;0.30;;;;;;;1.84;100.00;100412.09;5094728;28;20874;-66
2021/01/07 03:12:35;;;;;;;0.40;0.27;;;;;;;1.83;100.00;100405.16;5094717;28;20435;-67
2021/01/07 03:15:02;;;;;;;0.53;0.50;;;;;;;1.80;100.00;100398.44;5094615;28;20448;-66
2021/01/07 03:17:28;;;;;;;0.40;0.30;;;;;;;1.80;100.00;100408.31;5094405;28;20518;-67
2021/01/07 03:19:54;;;;;;;2.97;0.70;;;;;;;1.76;100.00;100403.47;5093758;28;20972;-67
2021/01/07 03:22:20;;;;;;;0.40;0.30;;;;;;;1.77;100.00;100397.09;5094713;28;20470;-67
2021/01/07 03:24:46;;;;;;;0.60;0.40;;;;;;;1.75;100.00;100393.84;5094669;28;20503;-66
2021/01/07 03:27:12;;;;;;;0.73;0.70;;;;;;;1.73;100.00;100401.31;5094295;28;20485;-66
2021/01/07 03:29:40;;;;;;;0.40;0.30;;;;;;;1.71;100.00;100400.72;5094497;28;20468;-67
2021/01/07 03:32:06;;;;;;;0.40;0.30;;;;;;;1.69;100.00;100402.03;5094941;28;20476;-66
2021/01/07 03:34:32;;;;;;;0.40;0.20;;;;;;;1.77;100.00;100397.09;5094627;28;20456;-67
2021/01/07 03:36:58;;;;;;;0.90;0.60;;;;;;;1.79;100.00;100399.50;5095182;28;20524;-67
2021/01/07 03:39:24;;;;;;;0.40;0.30;;;;;;;1.82;100.00;100401.69;5094792;28;20519;-67
2021/01/07 03:41:50;;;;;;;1.00;0.70;;;;;;;1.83;100.00;100391.81;5094416;28;20502;-65
2021/01/07 03:44:17;;;;;;;0.50;0.40;;;;;;;1.88;100.00;100402.56;5094176;28;20466;-67
2021/01/07 03:46:44;;;;;;;0.40;0.30;;;;;;;1.86;100.00;100394.78;5115398;22;20488;-67
2021/01/07 03:49:10;;;;;;;0.40;0.30;;;;;;;1.89;100.00;100399.63;5073223;28;20532;-66
2021/01/07 03:51:36;;;;;;;0.40;0.30;;;;;;;1.90;100.00;100400.44;5073233;28;20452;-67
2021/01/07 03:54:02;;;;;;;0.40;0.27;;;;;;;1.91;100.00;100402.06;5072863;28;21011;-67
2021/01/07 03:56:29;;;;;;;0.50;0.50;;;;;;;1.87;100.00;100401.75;5074010;28;20488;-67
2021/01/07 03:58:55;;;;;;;0.40;0.30;;;;;;;1.92;100.00;100407.16;5093598;28;20479;-67
2021/01/07 04:01:22;;;;;;;0.40;0.30;;;;;;;1.93;100.00;100402.59;5093381;28;20944;-68
2021/01/07 04:03:49;;;;;;;0.40;0.30;;;;;;;1.96;100.00;100400.25;5092974;28;20444;-67
2021/01/07 04:06:15;;;;;;;0.40;0.27;;;;;;;1.95;100.00;100395.16;5093595;28;20503;-67
2021/01/07 04:08:43;;;;;;;0.40;0.20;;;;;;;1.93;100.00;100399.94;5092927;28;20497;-67
2021/01/07 04:11:09;;;;;;;0.40;0.30;;;;;;;1.98;100.00;100406.13;5093568;28;20453;-67
2021/01/07 04:13:35;;;;;;;0.40;0.20;;;;;;;1.97;100.00;100401.88;5092920;28;20449;-67
2021/01/07 04:16:01;;;;;;;1.67;0.80;;;;;;;1.95;100.00;100395.16;5093395;28;20444;-66
2021/01/07 04:18:27;;;;;;;0.40;0.30;;;;;;;1.95;100.00;100397.84;5092769;28;20472;-67
2021/01/07 04:20:54;;;;;;;0.40;0.30;;;;;;;1.99;100.00;100389.09;5093101;28;20444;-65
2021/01/07 04:23:21;;;;;;;0.40;0.30;;;;;;;2.04;100.00;100393.69;5092783;28;20472;-67
2021/01/07 04:25:47;;;;;;;0.40;0.30;;;;;;;1.97;100.00;100385.84;5092817;28;20999;-66
2021/01/07 04:28:13;;;;;;;0.40;0.30;;;;;;;2.00;100.00;100389.88;5092954;28;20824;-65
2021/01/07 04:30:39;;;;;;;0.40;0.37;;;;;;;1.92;100.00;100376.97;5093051;28;20451;-66
2021/01/07 04:33:05;;;;;;;0.40;0.30;;;;;;;1.87;100.00;100387.59;5092694;28;20485;-65
2021/01/07 04:35:32;;;;;;;0.40;0.30;;;;;;;1.90;100.00;100385.22;5093247;28;20491;-66
2021/01/07 04:37:59;;;;;;;0.40;0.30;;;;;;;1.90;100.00;100384.41;5092913;28;20480;-66
2021/01/07 04:40:25;;;;;;;0.80;0.80;;;;;;;1.90;100.00;100384.41;5092817;28;20811;-66
2021/01/07 04:42:51;;;;;;;0.40;0.23;;;;;;;1.87;100.00;100382.25;5092911;28;20472;-65
2021/01/07 04:45:17;;;;;;;0.47;0.30;;;;;;;1.83;100.00;100386.47;5093096;28;20484;-67
2021/01/07 04:47:47;;;;;;;0.70;0.70;;;;;;;1.83;100.00;100389.13;5092423;28;20479;-66
2021/01/07 04:50:13;;;;;;;1.20;1.17;;;;;;;1.86;100.00;100383.28;5092834;28;20443;-66
2021/01/07 04:52:40;;;;;;;1.23;0.60;;;;;;;1.91;100.00;100391.38;5092733;28;20451;-67
2021/01/07 04:55:09;;;;;;;0.80;0.50;;;;;;;1.91;100.00;100391.38;5092798;28;20812;-65
2021/01/07 04:57:36;;;;;;;0.40;0.30;;;;;;;1.86;100.00;100391.28;5092099;28;20498;-66
2021/01/07 05:00:05;;;;;;;0.40;0.30;;;;;;;1.87;100.00;100390.25;5092757;28;20937;-67
2021/01/07 05:02:32;;;;;;;0.40;0.40;;;;;;;1.86;100.00;100389.44;5092677;28;20510;-67
2021/01/07 05:04:58;;;;;;;0.50;0.40;;;;;;;1.93;100.00;100389.25;5092976;28;20444;-67
2021/01/07 05:07:25;;;;;;;0.40;0.30;;;;;;;1.94;100.00;100393.53;5092175;28;20452;-67
2021/01/07 05:10:00;;;;;;;0.40;0.27;;;;;;;1.91;100.00;100392.19;5092702;28;20446;-67
2021/01/07 05:12:28;;;;;;;1.20;0.53;;;;;;;1.90;100.00;100398.56;5092494;28;20449;-67
2021/01/07 05:14:54;;;;;;;0.40;0.30;;;;;;;1.88;100.00;100397.22;5092750;28;20442;-67
2021/01/07 05:17:20;;;;;;;0.40;0.40;;;;;;;1.87;100.00;100395.59;5094262;28;20499;-67
2021/01/07 05:19:46;;;;;;;0.40;0.33;;;;;;;1.84;100.00;100394.22;5096579;28;20452;-70
2021/01/07 05:22:12;;;;;;;0.40;0.30;;;;;;;1.86;100.00;100385.94;5095245;28;20472;-66
2021/01/07 05:24:39;;;;;;;0.40;0.30;;;;;;;1.87;100.00;100395.59;5096634;28;20448;-67
2021/01/07 05:27:10;;;;;;;0.40;0.30;;;;;;;1.91;100.00;100396.72;5096083;28;20488;-68
2021/01/07 05:29:39;;;;;;;0.87;0.60;;;;;;;1.89;100.00;100394.28;5096433;28;20440;-67
2021/01/07 05:32:06;;;;;;;2.07;1.90;;;;;;;1.87;100.00;100391.06;5096505;28;20437;-67
2021/01/07 05:34:32;;;;;;;0.50;0.40;;;;;;;1.87;100.00;100398.28;5096083;28;20943;-65
2021/01/07 05:36:59;;;;;;;0.40;0.30;;;;;;;1.89;100.00;100391.59;5095694;28;20563;-66
2021/01/07 05:39:33;;;;;;;1.67;0.50;;;;;;;1.95;100.00;100387.16;5096037;28;20508;-66
2021/01/07 05:42:01;;;;;;;1.37;0.40;;;;;;;1.90;100.00;100397.75;5096011;28;20459;-66
2021/01/07 05:44:31;;;;;;;0.40;0.30;;;;;;;1.90;100.00;100405.75;5096464;28;20451;-66
2021/01/07 05:46:58;;;;;;;0.40;0.30;;;;;;;1.92;100.00;100395.66;5095847;28;21021;-66
2021/01/07 05:49:34;;;;;;;0.40;0.40;;;;;;;1.94;100.00;100401.53;5096109;28;20933;-67
2021/01/07 05:52:03;;;;;;;0.77;0.60;;;;;;;1.93;100.00;100402.59;5095825;28;20462;-66
2021/01/07 05:54:32;;;;;;;0.40;0.30;;;;;;;1.92;100.00;100404.47;5096062;28;20450;-67
2021/01/07 05:57:03;;;;;;;0.40;0.30;;;;;;;1.91;100.00;100404.72;5095515;28;20906;-66
2021/01/07 05:59:32;;;;;;;0.40;0.27;;;;;;;1.92;100.00;100409.81;5095621;28;20808;-67
2021/01/07 06:02:03;;;;;;;3.63;3.13;;;;;;;1.96;100.00;100404.78;5095905;28;20432;-66
2021/01/07 06:04:32;;;;;;;1.10;0.57;;;;;;;1.95;100.00;100406.66;5095596;28;20905;-67
2021/01/07 06:06:58;;;;;;;0.57;0.47;;;;;;;1.98;100.00;100410.69;5095464;28;20470;-65
2021/01/07 06:09:28;;;;;;;0.60;0.53;;;;;;;2.01;100.00;100402.19;5095673;28;20439;-67
2021/01/07 06:11:57;;;;;;;0.40;0.30;;;;;;;2.00;100.00;100406.72;5095728;28;20482;-66
2021/01/07 06:14:24;;;;;;;0.40;0.30;;;;;;;1.89;100.00;100409.50;5095336;28;20577;-67
2021/01/07 06:16:53;;;;;;;0.40;0.30;;;;;;;1.86;100.00;100404.63;5095450;28;20510;-67
2021/01/07 06:19:38;;;;;;;0.97;0.40;;;;;;;1.81;100.00;100409.91;5095585;28;20783;-67
2021/01/07 06:22:11;;;;;;;1.27;1.17;;;;;;;1.85;100.00;100397.69;5095248;28;20909;-66
2021/01/07 06:24:39;;;;;;;0.40;0.40;;;;;;;1.89;100.00;100399.63;5095144;28;20502;-67
2021/01/07 06:27:23;;;;;;;0.40;0.30;;;;;;;1.93;100.00;100399.94;5095102;28;20524;-66
2021/01/07 06:29:49;;;;;;;0.40;0.30;;;;;;;1.93;100.00;100407.94;5095393;28;20503;-67
2021/01/07 06:32:18;;;;;;;0.50;0.50;;;;;;;1.97;100.00;100409.06;5095007;28;20474;-67
2021/01/07 06:34:46;;;;;;;0.50;0.40;;;;;;;1.97;100.00;100404.53;5095267;28;20450;-66
2021/01/07 06:37:12;;;;;;;0.40;0.30;;;;;;;2.00;100.00;100404.03;5095047;28;20536;-66
2021/01/07 06:39:42;;;;;;;0.40;0.30;;;;;;;2.00;100.00;100404.03;5095174;28;20447;-67
2021/01/07 06:42:17;;;;;;;1.07;0.97;;;;;;;2.01;100.00;100402.19;5094806;28;21011;-66
2021/01/07 06:44:45;;;;;;;0.40;0.30;;;;;;;2.03;100.00;100405.41;5094827;28;20428;-66
2021/01/07 06:47:17;;;;;;;1.40;1.13;;;;;;;1.97;100.00;100411.75;5094922;28;20532;-68
2021/01/07 06:49:45;;;;;;;0.50;0.47;;;;;;;1.94;100.00;100414.91;5094737;28;20458;-68
2021/01/07 06:52:11;;;;;;;0.53;0.50;;;;;;;1.94;100.00;100412.22;5094956;28;20436;-67
2021/01/07 06:54:41;;;;;;;0.40;0.30;;;;;;;1.93;100.00;100406.09;5094907;28;20461;-67
2021/01/07 06:57:10;;;;;;;0.40;0.30;;;;;;;1.93;100.00;100415.97;5094384;28;20906;-68
2021/01/07 06:59:36;;;;;;;0.40;0.30;;;;;;;1.92;100.00;100415.16;5094687;28;20811;-66
2021/01/07 07:02:05;;;;;;;0.40;0.27;;;;;;;1.99;100.00;100418.47;5094464;28;20449;-67
2021/01/07 07:04:32;;;;;;;0.40;0.30;;;;;;;1.98;100.00;100419.50;5094883;28;20442;-67
2021/01/07 07:07:08;;;;;;;0.40;0.20;;;;;;;1.98;100.00;100418.69;5094772;28;20490;-68
2021/01/07 07:09:40;;;;;;;0.40;0.30;;;;;;;1.99;100.00;100425.63;5094222;28;20928;-68
2021/01/07 07:12:07;;;;;;;2.77;2.20;;;;;;;2.02;100.00;100425.16;5094553;28;20440;-68
2021/01/07 07:14:34;;;;;;;0.40;0.30;;;;;;;1.99;100.00;100425.63;5094494;28;20483;-68
2021/01/07 07:17:08;;;;;;;0.87;0.53;;;;;;;1.97;100.00;100433.09;5094313;28;20877;-68
2021/01/07 07:19:38;;;;;;;1.77;0.93;;;;;;;1.95;100.00;100428.03;5094319;28;20464;-68
2021/01/07 07:22:08;;;;;;;0.40;0.30;;;;;;;2.00;100.00;100433.44;5094095;28;20435;-67
2021/01/07 07:24:36;;;;;;;1.80;0.87;;;;;;;2.01;100.00;100440.38;5094372;28;20456;-68
2021/01/07 07:27:09;;;;;;;0.40;0.30;;;;;;;1.98;100.00;100440.88;5094015;28;20464;-68
2021/01/07 07:29:38;;;;;;;0.40;0.30;;;;;;;2.00;100.00;100435.28;5094366;28;20454;-68
2021/01/07 07:32:24;;;;;;;0.67;0.50;;;;;;;2.01;100.00;100445.72;5093909;28;20478;-67
2021/01/07 07:34:51;;;;;;;0.40;0.30;;;;;;;2.00;100.00;100441.44;5094226;28;20444;-68
2021/01/07 07:37:20;;;;;;;0.40;0.30;;;;;;;2.05;100.00;100445.22;5094028;28;20516;-69
2021/01/07 07:39:48;;;;;;;0.40;0.30;;;;;;;2.05;100.00;100446.03;5093052;28;20476;-67
2021/01/07 07:42:15;;;;;;;1.50;0.90;;;;;;;2.10;100.00;100445.28;5094027;28;20487;-67
2021/01/07 07:44:42;;;;;;;0.90;0.77;;;;;;;2.11;100.00;100447.72;5093948;28;20432;-66
2021/01/07 07:47:08;;;;;;;1.43;1.30;;;;;;;2.15;100.00;100451.50;5093649;28;20556;-66
2021/01/07 07:49:34;;;;;;;0.40;0.20;;;;;;;2.10;100.00;100456.78;5093382;28;20465;-66
2021/01/07 07:52:00;;;;;;;0.40;0.30;;;;;;;2.15;100.00;100461.38;5093880;28;20446;-67
2021/01/07 07:54:27;;;;;;;0.93;0.83;;;;;;;2.10;100.00;100458.66;5093814;28;20443;-67
2021/01/07 07:57:00;;;;;;;0.77;0.40;;;;;;;2.12;100.00;100459.19;5093666;28;20511;-66
2021/01/07 07:59:27;;;;;;;1.07;0.57;;;;;;;2.12;100.00;100460.00;5093976;28;20479;-66
2021/01/07 08:01:54;;;;;;;0.40;0.30;;;;;;;2.14;100.00;100463.25;5093618;28;20474;-67
2021/01/07 08:04:22;;;;;;;0.40;0.30;;;;;;;2.16;100.00;100469.13;5093679;28;20505;-68
2021/01/07 08:06:50;;;;;;;0.40;0.30;;;;;;;2.15;100.00;100472.88;5093233;28;20478;-67
2021/01/07 08:09:18;;;;;;;1.23;0.77;;;;;;;2.16;100.00;100466.47;5093523;28;20482;-68
2021/01/07 08:11:47;;;;;;;0.40;0.37;;;;;;;2.16;100.00;100471.00;5093424;28;20970;-67
2021/01/07 08:14:17;;;;;;;0.40;0.30;;;;;;;2.21;100.00;100471.06;5093614;28;20804;-67
2021/01/07 08:16:44;;;;;;;0.53;0.47;;;;;;;2.21;100.00;100476.41;5093101;28;20478;-67
2021/01/07 08:19:20;;;;;;;0.40;0.30;;;;;;;2.22;100.00;100475.38;5093502;28;20785;-66
2021/01/07 08:21:48;;;;;;;0.40;0.30;;;;;;;2.21;100.00;100474.56;5093277;28;20937;-67
2021/01/07 08:24:16;;;;;;;0.40;0.40;;;;;;;2.23;100.00;100468.97;5093099;28;20451;-67
2021/01/07 08:26:45;;;;;;;0.40;0.30;;;;;;;2.25;100.00;100481.00;5093037;28;20437;-67
2021/01/07 08:29:12;;;;;;;0.40;0.30;;;;;;;2.24;100.00;100479.41;5093357;28;20436;-66
2021/01/07 08:31:46;;;;;;;0.40;0.30;;;;;;;2.32;100.00;100472.00;5093292;28;20474;-67
2021/01/07 08:34:13;;;;;;;0.40;0.30;;;;;;;2.34;99.97;100483.25;5093455;28;20833;-67
2021/01/07 08:36:40;;;;;;;0.40;0.20;;;;;;;2.28;99.71;100477.03;5093148;28;20483;-67
2021/01/07 08:39:06;;;;;;;2.40;0.60;;;;;;;2.28;99.57;100474.38;5093263;28;20532;-67
2021/01/07 08:41:32;;;;;;;0.40;0.30;;;;;;;2.30;100.00;100482.13;5093175;28;20444;-67
2021/01/07 08:44:01;;;;;;;0.40;0.30;;;;;;;2.32;99.93;100474.69;5093327;28;20471;-66
2021/01/07 08:46:36;;;;;;;0.40;0.20;;;;;;;2.35;99.96;100474.19;5093152;28;20450;-69
2021/01/07 08:49:04;;;;;;;7.60;1.63;;;;;;;2.28;100.00;100466.34;5093372;28;20785;-69
2021/01/07 08:51:37;;;;;;;0.40;0.30;;;;;;;2.27;100.00;100473.56;5096267;28;20933;-68
2021/01/07 08:54:10;;;;;;;0.77;0.47;;;;;;;2.26;100.00;100471.16;5097329;28;20435;-69
2021/01/07 08:56:37;;;;;;;0.90;0.90;;;;;;;2.34;100.00;100470.69;5096776;28;20528;-68
2021/01/07 08:59:21;;;;;;;0.40;0.30;;;;;;;2.39;100.00;100473.44;5097163;28;20813;-68
2021/01/07 09:01:48;;;;;;;0.40;0.20;;;;;;;2.43;99.68;100471.06;5096948;28;20443;-66
2021/01/07 09:04:29;;;;;;;2.53;1.37;;;;;;;2.43;99.34;100473.75;5097148;28;20487;-67
2021/01/07 09:06:57;;;;;;;0.40;0.30;;;;;;;2.39;99.85;100469.94;5096806;28;20460;-67
2021/01/07 09:09:24;;;;;;;0.40;0.20;;;;;;;2.46;100.00;100468.72;5096485;28;20951;-67
2021/01/07 09:11:50;;;;;;;0.53;0.53;;;;;;;2.50;100.00;100474.38;5096449;28;20436;-66
2021/01/07 09:14:16;;;;;;;12.33;1.23;;;;;;;2.49;98.32;100470.88;5096398;28;20451;-68
2021/01/07 09:16:59;;;;;;;2.30;0.60;;;;;;;2.49;97.86;100476.22;5096525;28;20491;-67
2021/01/07 09:19:25;;;;;;;0.40;0.30;;;;;;;2.43;98.21;100479.88;5096625;28;20467;-67
2021/01/07 09:22:01;;;;;;;0.40;0.30;;;;;;;2.43;98.50;100479.88;5096764;28;20451;-67
2021/01/07 09:24:32;;;;;;;0.40;0.20;;;;;;;2.40;99.00;100474.25;5096635;28;20482;-67
2021/01/07 09:27:08;;;;;;;0.43;0.40;;;;;;;2.41;98.93;100481.22;5096532;28;20486;-66
2021/01/07 09:29:34;;;;;;;2.60;0.57;;;;;;;2.40;98.61;100475.06;5096322;28;20415;-66
2021/01/07 09:32:01;;;;;;;2.30;2.20;;;;;;;2.41;98.48;100475.88;5096541;28;20451;-67
2021/01/07 09:34:28;;;;;;;0.40;0.30;;;;;;;2.43;98.03;100481.75;5096466;28;20465;-67
2021/01/07 09:36:54;;;;;;;0.40;0.30;;;;;;;2.47;97.94;100478.34;5095779;28;21000;-67
2021/01/07 09:39:20;;;;;;;0.40;0.27;;;;;;;2.44;97.92;100478.03;5096365;28;20807;-64
2021/01/07 09:41:47;;;;;;;0.83;0.83;;;;;;;2.46;98.48;100475.91;5096235;28;20940;-67
2021/01/07 09:44:13;;;;;;;0.40;0.30;;;;;;;2.47;97.52;100474.84;5096033;28;20447;-68
2021/01/07 09:49:15;;;;;;;0.43;0.43;;;;;;;2.46;97.04;100473.25;5103648;22;20487;-79
2021/01/07 09:51:42;;;;;;;0.40;0.30;;;;;;;2.51;97.50;100474.09;5079839;28;20454;-79
2021/01/07 09:54:08;;;;;;;0.40;0.27;;;;;;;2.54;97.48;100470.13;5079558;28;20453;-79
2021/01/07 09:56:34;;;;;;;0.40;0.30;;;;;;;2.61;97.16;100473.44;5089113;22;20452;-66
2021/01/07 09:59:01;;;;;;;0.40;0.30;;;;;;;2.66;96.96;100484.19;5080455;28;21005;-67
2021/01/07 10:01:27;;;;;;;0.40;0.30;;;;;;;2.62;96.40;100471.56;5078555;28;20441;-67
2021/01/07 10:03:53;;;;;;;0.50;0.50;;;;;;;2.62;95.97;100474.25;5078255;28;20446;-66
2021/01/07 10:06:20;;;;;;;0.40;0.30;;;;;;;2.55;95.57;100469.06;5076366;28;20445;-66
2021/01/07 10:08:46;;;;;;;0.40;0.30;;;;;;;2.52;95.53;100467.72;5080569;28;20472;-66
2021/01/07 10:11:13;;;;;;;0.40;0.40;;;;;;;2.52;95.88;100461.53;5079990;28;20988;-66
2021/01/07 10:13:39;;;;;;;0.40;0.20;;;;;;;2.55;96.11;100471.75;5081099;28;20970;-65
2021/01/07 10:16:06;;;;;;;0.40;0.30;;;;;;;2.53;96.28;100465.84;5081407;28;20444;-66
2021/01/07 10:18:32;;;;;;;0.40;0.30;;;;;;;2.57;97.01;100468.81;5081264;28;20489;-66
2021/01/07 10:21:00;;;;;;;0.40;0.30;;;;;;;2.62;96.45;100474.25;5081206;28;20450;-65
2021/01/07 10:23:29;;;;;;;0.40;0.30;;;;;;;2.60;96.50;100469.13;5081295;28;20442;-66
2021/01/07 10:25:56;;;;;;;0.40;0.30;;;;;;;2.67;96.28;100467.06;5081871;28;20448;-65
2021/01/07 10:28:23;;;;;;;0.40;0.20;;;;;;;2.70;95.70;100468.41;5080689;28;21034;-66
2021/01/07 10:30:51;;;;;;;0.40;0.30;;;;;;;2.70;95.83;100468.41;5081482;28;20445;-66
2021/01/07 10:33:18;;;;;;;0.40;0.30;;;;;;;2.67;96.18;100469.75;5082474;28;20460;-67
2021/01/07 10:35:44;;;;;;;0.40;0.20;;;;;;;2.74;96.01;100470.34;5081957;28;20790;-66
2021/01/07 10:38:12;;;;;;;0.47;0.40;;;;;;;2.78;95.92;100468.78;5081548;28;20485;-66
2021/01/07 10:40:45;;;;;;;0.40;0.23;;;;;;;2.73;95.58;100467.94;5082954;28;20441;-66
2021/01/07 10:43:12;;;;;;;1.13;0.73;;;;;;;2.76;95.55;100475.44;5083241;28;20509;-66
2021/01/07 10:45:39;;;;;;;0.40;0.30;;;;;;;2.75;95.85;100468.50;5082625;28;20490;-65
2021/01/07 10:48:13;;;;;;;0.40;0.40;;;;;;;2.74;95.67;100469.53;5083002;28;20468;-65
2021/01/07 10:50:41;;;;;;;0.40;0.30;;;;;;;2.73;95.16;100465.25;5081583;28;20914;-66
2021/01/07 10:53:30;;;;;;;0.40;0.30;;;;;;;2.73;95.31;100463.38;5081578;28;20530;-66
2021/01/07 10:56:03;;;;;;;0.40;0.30;;;;;;;2.66;94.89;100473.47;5082221;28;20437;-66
2021/01/07 10:58:49;;;;;;;0.40;0.30;;;;;;;2.66;95.59;100462.78;5081743;28;20492;-66
2021/01/07 11:01:32;;;;;;;0.67;0.67;;;;;;;2.63;95.66;100457.94;5082027;28;20422;-67
2021/01/07 11:04:22;;;;;;;0.40;0.30;;;;;;;2.69;95.64;100475.63;5081539;28;20462;-65
2021/01/07 11:06:53;;;;;;;0.40;0.30;;;;;;;2.66;95.11;100462.78;5071976;28;20451;-65
2021/01/07 11:09:27;;;;;;;0.40;0.30;;;;;;;2.59;94.63;100459.50;5080922;28;20426;-66
2021/01/07 11:12:02;;;;;;;0.40;0.30;;;;;;;2.59;94.82;100462.16;5081358;28;20426;-65
2021/01/07 11:14:36;;;;;;;3.33;2.60;;;;;;;2.57;94.73;100453.59;5079963;28;20435;-65
2021/01/07 11:17:11;;;;;;;1.90;0.87;;;;;;;2.61;95.00;100449.38;5080972;28;20535;-66
2021/01/07 11:19:38;;;;;;;0.40;0.30;;;;;;;2.68;95.67;100454.50;5081477;28;20430;-66
2021/01/07 11:22:11;;;;;;;0.40;0.30;;;;;;;2.70;95.27;100452.38;5080634;28;20460;-66
2021/01/07 11:24:40;;;;;;;1.80;0.73;;;;;;;2.67;95.67;100445.69;5081992;28;20845;-66
2021/01/07 11:27:10;;;;;;;0.40;0.30;;;;;;;2.64;95.09;100443.50;5080833;28;20448;-66
2021/01/07 11:29:39;;;;;;;0.40;0.20;;;;;;;2.68;95.75;100439.25;5082553;28;20442;-65
2021/01/07 11:32:05;;;;;;;0.40;0.30;;;;;;;2.73;96.56;100446.53;5081644;28;20452;-66
2021/01/07 11:34:32;;;;;;;1.80;0.93;;;;;;;2.74;96.23;100445.47;5081418;28;20448;-65